createdAt,value
2023-01-28T00:01:31.997Z,-0.16
2023-01-28T00:04:00.262Z,-0.31
2023-01-28T00:06:28.096Z,-0.24
2023-01-28T00:08:57.682Z,-0.22
2023-01-28T00:11:25.290Z,-0.22
2023-01-28T00:13:54.365Z,-0.22
2023-01-28T00:16:23.156Z,-0.22
2023-01-28T00:18:51.530Z,-0.24
2023-01-28T00:21:19.215Z,-0.25
2023-01-28T00:23:51.732Z,-0.30
2023-01-28T00:26:21.156Z,-0.30
2023-01-28T00:28:50.213Z,-0.31
2023-01-28T00:31:19.228Z,-0.24
2023-01-28T00:33:48.965Z,-0.19
2023-01-28T00:36:17.953Z,-0.16
2023-01-28T00:38:51.250Z,-0.13
2023-01-28T00:41:22.322Z,-0.08
2023-01-28T00:43:52.954Z,-0.09
2023-01-28T00:46:22.594Z,-0.11
2023-01-28T00:48:50.777Z,-0.09
2023-01-28T00:51:20.073Z,-0.11
2023-01-28T00:53:49.960Z,-0.08
2023-01-28T00:56:20.678Z,-0.07
2023-01-28T00:58:48.931Z,-0.11
2023-01-28T01:01:18.501Z,-0.10
2023-01-28T01:03:46.604Z,-0.07
2023-01-28T01:06:16.327Z,-0.06
2023-01-28T01:08:50.147Z,-0.08
2023-01-28T01:11:20.274Z,-0.13
2023-01-28T01:13:52.240Z,-0.16
2023-01-28T01:16:19.948Z,-0.16
2023-01-28T01:18:50.083Z,-0.19
2023-01-28T01:21:20.318Z,-0.16
2023-01-28T01:23:48.618Z,-0.14
2023-01-28T01:26:16.989Z,-0.16
2023-01-28T01:28:45.966Z,-0.17
2023-01-28T01:31:16.244Z,-0.19
2023-01-28T01:33:45.396Z,-0.21
2023-01-28T01:36:15.407Z,-0.19
2023-01-28T01:38:43.228Z,-0.13
2023-01-28T01:41:23.032Z,-0.17
2023-01-28T01:43:53.487Z,-0.19
2023-01-28T01:46:27.284Z,-0.21
2023-01-28T01:48:58.288Z,-0.24
2023-01-28T01:51:30.442Z,-0.20
2023-01-28T01:54:00.055Z,-0.19
2023-01-28T01:56:30.475Z,-0.20
2023-01-28T01:58:59.775Z,-0.24
2023-01-28T02:01:32.373Z,-0.30
2023-01-28T02:04:06.903Z,-0.28
2023-01-28T02:06:36.682Z,-0.34
2023-01-28T02:09:07.940Z,-0.39
2023-01-28T02:11:35.979Z,-0.35
2023-01-28T02:14:07.559Z,-0.34
2023-01-28T02:16:35.329Z,-0.33
2023-01-28T02:19:03.287Z,-0.39
2023-01-28T02:21:57.353Z,-0.42
2023-01-28T02:24:53.509Z,-0.42
2023-01-28T02:27:28.312Z,-0.43
2023-01-28T02:30:04.424Z,-0.48
2023-01-28T02:32:37.567Z,-0.46
2023-01-28T02:35:13.950Z,-0.44
2023-01-28T02:37:48.776Z,-0.43
2023-01-28T02:40:21.209Z,-0.41
2023-01-28T02:42:49.601Z,-0.35
2023-01-28T02:45:22.729Z,-0.30
2023-01-28T02:47:58.740Z,-0.26
2023-01-28T02:50:37.316Z,-0.39
2023-01-28T02:53:36.537Z,-0.37
2023-01-28T02:56:14.178Z,-0.39
2023-01-28T02:58:45.984Z,-0.37
2023-01-28T03:01:24.593Z,-0.39
2023-01-28T03:04:00.196Z,-0.38
2023-01-28T03:06:34.761Z,-0.36
2023-01-28T03:09:26.984Z,-0.34
2023-01-28T03:12:16.545Z,-0.33
2023-01-28T03:15:05.385Z,-0.36
2023-01-28T03:18:00.309Z,-0.34
2023-01-28T03:20:52.671Z,-0.41
2023-01-28T03:23:46.114Z,-0.42
2023-01-28T03:26:34.096Z,-0.45
2023-01-28T03:29:31.204Z,-0.42
2023-01-28T03:32:18.819Z,-0.40
2023-01-28T03:35:06.425Z,-0.45
2023-01-28T03:37:35.389Z,-0.42
2023-01-28T03:40:15.427Z,-0.48
2023-01-28T03:42:44.848Z,-0.49
2023-01-28T03:45:51.295Z,-0.43
2023-01-28T03:48:20.393Z,-0.48
2023-01-28T03:50:49.874Z,-0.44
2023-01-28T03:53:18.961Z,-0.49
2023-01-28T03:55:49.423Z,-0.48
2023-01-28T03:58:19.576Z,-0.50
2023-01-28T04:00:47.512Z,-0.45
2023-01-28T04:03:17.335Z,-0.50
2023-01-28T04:06:01.454Z,-0.57
2023-01-28T04:08:48.996Z,-0.49
2023-01-28T04:11:40.436Z,-0.49
2023-01-28T04:14:09.672Z,-0.48
2023-01-28T04:17:04.392Z,-0.48
2023-01-28T04:19:37.095Z,-0.53
2023-01-28T04:22:12.188Z,-0.55
2023-01-28T04:24:41.527Z,-0.58
2023-01-28T04:27:10.163Z,-0.55
2023-01-28T04:29:37.914Z,-0.57
2023-01-28T04:32:35.778Z,-0.54
2023-01-28T04:35:09.259Z,-0.49
2023-01-28T04:37:50.701Z,-0.55
2023-01-28T04:40:32.303Z,-0.53
2023-01-28T04:43:08.433Z,-0.50
2023-01-28T04:45:50.299Z,-0.45
2023-01-28T04:48:36.894Z,-0.44
2023-01-28T04:51:21.107Z,-0.43
2023-01-28T04:54:09.480Z,-0.43
2023-01-28T04:56:38.691Z,-0.47
2023-01-28T04:59:06.440Z,-0.46
2023-01-28T05:01:35.907Z,-0.49
2023-01-28T05:04:05.684Z,-0.36
2023-01-28T05:06:36.674Z,-0.36
2023-01-28T05:09:12.513Z,-0.38
2023-01-28T05:11:41.395Z,-0.35
2023-01-28T05:14:09.743Z,-0.33
2023-01-28T05:16:53.246Z,-0.25
2023-01-28T05:19:21.593Z,-0.35
2023-01-28T05:21:49.484Z,-0.36
2023-01-28T05:24:39.062Z,-0.34
2023-01-28T05:27:07.779Z,-0.35
2023-01-28T05:29:35.582Z,-0.41
2023-01-28T05:32:03.548Z,-0.41
2023-01-28T05:34:32.344Z,-0.45
2023-01-28T05:37:04.669Z,-0.44
2023-01-28T05:39:35.495Z,-0.43
2023-01-28T05:42:05.116Z,-0.36
2023-01-28T05:44:36.314Z,-0.31
2023-01-28T05:47:20.456Z,-0.32
2023-01-28T05:50:08.902Z,-0.30
2023-01-28T05:52:44.833Z,-0.39
2023-01-28T05:55:22.241Z,-0.32
2023-01-28T05:57:51.944Z,-0.30
2023-01-28T06:00:22.858Z,-0.32
2023-01-28T06:02:52.275Z,-0.37
2023-01-28T06:05:21.441Z,-0.37
2023-01-28T06:07:50.002Z,-0.39
2023-01-28T06:10:18.447Z,-0.41
2023-01-28T06:12:47.627Z,-0.46
2023-01-28T06:15:36.899Z,-0.39
2023-01-28T06:18:31.206Z,-0.45
2023-01-28T06:20:59.611Z,-0.40
2023-01-28T06:23:27.278Z,-0.37
2023-01-28T06:25:56.007Z,-0.34
2023-01-28T06:28:26.133Z,-0.33
2023-01-28T06:30:55.406Z,-0.38
2023-01-28T06:33:24.590Z,-0.33
2023-01-28T06:35:52.420Z,-0.31
2023-01-28T06:38:20.466Z,-0.35
2023-01-28T06:40:52.370Z,-0.31
2023-01-28T06:43:20.629Z,-0.26
2023-01-28T06:45:48.403Z,-0.30
2023-01-28T06:48:17.897Z,-0.30
2023-01-28T06:50:47.706Z,-0.29
2023-01-28T06:53:15.870Z,-0.28
2023-01-28T06:55:43.865Z,-0.32
2023-01-28T06:58:11.503Z,-0.30
2023-01-28T07:00:39.748Z,-0.31
2023-01-28T07:03:08.433Z,-0.34
2023-01-28T07:05:37.369Z,-0.35
2023-01-28T07:08:04.977Z,-0.35
2023-01-28T07:10:33.419Z,-0.48
2023-01-28T07:13:01.002Z,-0.42
2023-01-28T07:15:29.134Z,-0.43
2023-01-28T07:17:56.698Z,-0.36
2023-01-28T07:20:24.679Z,-0.35
2023-01-28T07:22:53.955Z,-0.40
2023-01-28T07:25:21.932Z,-0.39
2023-01-28T07:27:51.329Z,-0.33
2023-01-28T07:30:21.073Z,-0.38
2023-01-28T07:32:48.921Z,-0.38
2023-01-28T07:35:17.183Z,-0.36
2023-01-28T07:37:53.883Z,-0.37
2023-01-28T07:40:22.797Z,-0.34
2023-01-28T07:42:50.660Z,-0.28
2023-01-28T07:45:23.795Z,-0.26
2023-01-28T07:47:55.971Z,-0.18
2023-01-28T07:50:24.341Z,-0.08
2023-01-28T07:52:53.774Z,-0.11
2023-01-28T07:55:22.417Z,-0.13
2023-01-28T07:57:51.599Z,-0.14
2023-01-28T08:00:21.117Z,-0.05
2023-01-28T08:02:49.073Z,0.03
2023-01-28T08:05:19.138Z,0.09
2023-01-28T08:07:48.326Z,0.09
2023-01-28T08:10:18.664Z,0.12
2023-01-28T08:12:53.664Z,0.19
2023-01-28T08:15:22.719Z,0.29
2023-01-28T08:17:50.471Z,0.35
2023-01-28T08:20:18.924Z,0.43
2023-01-28T08:22:46.529Z,0.50
2023-01-28T08:25:14.490Z,0.42
2023-01-28T08:27:43.467Z,0.45
2023-01-28T08:30:12.769Z,0.31
2023-01-28T08:32:40.909Z,0.37
2023-01-28T08:35:09.421Z,0.39
2023-01-28T08:37:37.059Z,0.40
2023-01-28T08:40:05.315Z,0.47
2023-01-28T08:42:32.929Z,0.51
2023-01-28T08:45:02.658Z,0.46
2023-01-28T08:47:30.251Z,0.44
2023-01-28T08:49:57.843Z,0.51
2023-01-28T08:52:25.431Z,0.53
2023-01-28T08:54:53.024Z,0.56
2023-01-28T08:57:20.810Z,0.40
2023-01-28T08:59:48.404Z,0.50
2023-01-28T09:02:30.813Z,0.41
2023-01-28T09:05:00.379Z,0.44
2023-01-28T09:07:28.345Z,0.48
2023-01-28T09:09:56.011Z,0.43
2023-01-28T09:12:24.315Z,0.48
2023-01-28T09:14:52.983Z,0.54
2023-01-28T09:17:23.411Z,0.54
2023-01-28T09:19:51.070Z,0.62
2023-01-28T09:22:19.541Z,0.68
2023-01-28T09:24:47.174Z,0.78
2023-01-28T09:27:15.145Z,0.88
2023-01-28T09:29:42.726Z,0.95
2023-01-28T09:32:11.202Z,0.88
2023-01-28T09:34:40.295Z,0.88
2023-01-28T09:37:08.624Z,0.88
2023-01-28T09:39:36.240Z,0.93
2023-01-28T09:42:25.307Z,0.88
2023-01-28T09:45:02.476Z,0.92
2023-01-28T09:47:35.754Z,0.85
2023-01-28T09:50:08.751Z,0.87
2023-01-28T09:52:39.923Z,0.81
2023-01-28T09:55:16.560Z,0.74
2023-01-28T09:57:48.890Z,0.75
2023-01-28T10:00:18.700Z,0.77
2023-01-28T10:03:01.750Z,0.85
2023-01-28T10:05:40.976Z,0.95
2023-01-28T10:08:26.671Z,0.99
2023-01-28T10:11:02.911Z,1.08
2023-01-28T10:13:42.427Z,1.15
2023-01-28T10:16:20.049Z,1.19
2023-01-28T10:18:51.971Z,1.18
2023-01-28T10:21:28.135Z,1.26
2023-01-28T10:24:02.656Z,1.26
2023-01-28T10:26:36.007Z,1.22
2023-01-28T10:29:06.212Z,1.18
2023-01-28T10:31:40.816Z,1.17
2023-01-28T10:34:10.303Z,1.17
2023-01-28T10:36:39.977Z,1.20
2023-01-28T10:39:09.014Z,1.27
2023-01-28T10:41:45.306Z,1.26
2023-01-28T10:44:23.098Z,1.29
2023-01-28T10:46:54.564Z,1.27
2023-01-28T10:49:27.365Z,1.27
2023-01-28T10:51:56.622Z,1.42
2023-01-28T10:54:26.207Z,1.45
2023-01-28T10:56:56.730Z,1.57
2023-01-28T10:59:28.574Z,1.61
2023-01-28T11:01:58.845Z,1.66
2023-01-28T11:04:29.546Z,1.64
2023-01-28T11:07:01.668Z,1.79
2023-01-28T11:09:31.802Z,1.81
2023-01-28T11:12:00.122Z,1.86
2023-01-28T11:14:28.815Z,1.89
2023-01-28T11:16:59.355Z,2.00
2023-01-28T11:19:32.382Z,2.22
2023-01-28T11:22:01.834Z,2.41
2023-01-28T11:24:31.884Z,2.40
2023-01-28T11:27:02.483Z,2.39
2023-01-28T11:29:33.980Z,2.42
2023-01-28T11:32:02.490Z,2.55
2023-01-28T11:34:34.171Z,2.58
2023-01-28T11:37:16.141Z,2.55
2023-01-28T11:39:44.130Z,2.57
2023-01-28T11:42:16.867Z,2.65
2023-01-28T11:44:45.241Z,2.71
2023-01-28T11:47:43.819Z,2.79
2023-01-28T11:50:26.486Z,2.79
2023-01-28T11:53:08.922Z,2.75
2023-01-28T11:55:46.136Z,2.70
2023-01-28T11:58:22.237Z,2.65
2023-01-28T12:01:01.397Z,2.63
2023-01-28T12:04:05.521Z,2.69
2023-01-28T12:06:44.212Z,2.71
2023-01-28T12:09:25.336Z,2.71
2023-01-28T12:12:15.369Z,2.71
2023-01-28T12:15:21.886Z,2.78
2023-01-28T12:18:03.893Z,2.67
2023-01-28T12:20:39.948Z,2.61
2023-01-28T12:23:25.955Z,2.43
2023-01-28T12:26:07.323Z,2.44
2023-01-28T12:28:48.863Z,2.51
2023-01-28T12:31:34.462Z,2.49
2023-01-28T12:34:26.066Z,2.60
2023-01-28T12:37:03.393Z,2.79
2023-01-28T12:39:50.568Z,3.17
2023-01-28T12:42:28.640Z,3.75
2023-01-28T12:45:04.264Z,4.08
2023-01-28T12:47:36.978Z,4.27
2023-01-28T12:50:15.992Z,4.48
2023-01-28T12:52:48.991Z,4.60
2023-01-28T12:55:21.612Z,4.69
2023-01-28T12:57:53.545Z,4.68
2023-01-28T13:00:26.711Z,4.39
2023-01-28T13:03:03.061Z,4.14
2023-01-28T13:05:35.903Z,4.02
2023-01-28T13:08:07.078Z,3.87
2023-01-28T13:10:40.055Z,3.53
2023-01-28T13:13:18.134Z,3.36
2023-01-28T13:15:47.534Z,3.23
2023-01-28T13:18:33.243Z,3.19
2023-01-28T13:21:02.512Z,3.06
2023-01-28T13:23:39.821Z,2.99
2023-01-28T13:26:26.903Z,2.92
2023-01-28T13:29:09.323Z,2.86
2023-01-28T13:31:42.409Z,2.84
2023-01-28T13:34:29.845Z,2.92
2023-01-28T13:36:59.994Z,2.83
2023-01-28T13:39:29.019Z,2.76
2023-01-28T13:42:08.954Z,2.76
2023-01-28T13:44:38.770Z,2.84
2023-01-28T13:47:22.668Z,2.88
2023-01-28T13:49:56.987Z,2.83
2023-01-28T13:52:29.260Z,2.81
2023-01-28T13:55:02.366Z,2.76
2023-01-28T13:58:02.744Z,2.76
2023-01-28T14:00:41.884Z,2.74
2023-01-28T14:03:36.806Z,2.67
2023-01-28T14:06:44.861Z,2.45
2023-01-28T14:09:32.593Z,2.54
2023-01-28T14:12:50.085Z,2.51
2023-01-28T14:15:40.746Z,2.34
2023-01-28T14:18:20.740Z,2.40
2023-01-28T14:20:49.346Z,2.30
2023-01-28T14:23:19.132Z,2.36
2023-01-28T14:26:04.479Z,2.36
2023-01-28T14:28:42.763Z,2.38
2023-01-28T14:31:18.195Z,2.30
2023-01-28T14:33:46.311Z,2.23
2023-01-28T14:36:14.462Z,2.23
2023-01-28T14:38:44.814Z,2.24
2023-01-28T14:41:23.259Z,2.24
2023-01-28T14:43:51.122Z,2.16
2023-01-28T14:46:32.325Z,2.17
2023-01-28T14:49:15.209Z,2.11
2023-01-28T14:51:55.358Z,2.10
2023-01-28T14:54:36.271Z,2.05
2023-01-28T14:57:29.884Z,2.02
2023-01-28T15:00:01.016Z,1.97
2023-01-28T15:02:32.193Z,1.94
2023-01-28T15:05:10.131Z,1.86
2023-01-28T15:07:38.048Z,1.87
2023-01-28T15:10:15.293Z,1.91
2023-01-28T15:12:48.064Z,1.78
2023-01-28T15:15:22.430Z,1.84
2023-01-28T15:17:52.880Z,1.91
2023-01-28T15:20:23.825Z,1.80
2023-01-28T15:22:53.999Z,1.76
2023-01-28T15:25:23.744Z,1.66
2023-01-28T15:27:54.495Z,1.76
2023-01-28T15:30:24.666Z,1.76
2023-01-28T15:33:03.076Z,1.74
2023-01-28T15:35:31.369Z,1.72
2023-01-28T15:37:59.475Z,1.67
2023-01-28T15:40:30.986Z,1.66
2023-01-28T15:42:59.204Z,1.67
2023-01-28T15:45:28.550Z,1.64
2023-01-28T15:48:09.161Z,1.62
2023-01-28T15:50:38.320Z,1.54
2023-01-28T15:53:11.331Z,1.46
2023-01-28T15:55:40.802Z,1.45
2023-01-28T15:58:31.078Z,1.47
2023-01-28T16:01:17.362Z,1.36
2023-01-28T16:03:48.067Z,1.34
2023-01-28T16:06:21.941Z,1.37
2023-01-28T16:08:54.047Z,1.37
2023-01-28T16:11:24.792Z,1.38
2023-01-28T16:13:52.953Z,1.34
2023-01-28T16:16:29.528Z,1.34
2023-01-28T16:18:58.764Z,1.32
2023-01-28T16:21:28.591Z,1.32
2023-01-28T16:24:01.331Z,1.33
2023-01-28T16:26:30.679Z,1.31
2023-01-28T16:28:59.156Z,1.28
2023-01-28T16:31:26.932Z,1.25
2023-01-28T16:33:55.261Z,1.27
2023-01-28T16:36:25.172Z,1.22
2023-01-28T16:38:52.791Z,1.22
2023-01-28T16:41:25.806Z,1.19
2023-01-28T16:43:53.663Z,1.11
2023-01-28T16:46:21.778Z,1.09
2023-01-28T16:48:49.833Z,1.04
2023-01-28T16:51:18.836Z,1.04
2023-01-28T16:53:49.700Z,1.03
2023-01-28T16:56:30.657Z,1.04
2023-01-28T16:59:10.948Z,1.05
2023-01-28T17:01:39.488Z,1.08
2023-01-28T17:04:12.000Z,1.02
2023-01-28T17:06:42.778Z,0.99
2023-01-28T17:09:13.017Z,0.97
2023-01-28T17:11:41.095Z,0.99
2023-01-28T17:14:09.660Z,0.97
2023-01-28T17:16:37.714Z,0.97
2023-01-28T17:19:06.705Z,0.99
2023-01-28T17:21:34.750Z,0.95
2023-01-28T17:24:03.608Z,0.98
2023-01-28T17:26:34.189Z,0.99
2023-01-28T17:29:02.994Z,1.00
2023-01-28T17:31:30.734Z,0.91
2023-01-28T17:34:00.098Z,0.91
2023-01-28T17:36:28.075Z,0.91
2023-01-28T17:38:56.749Z,0.92
2023-01-28T17:41:24.318Z,0.95
2023-01-28T17:43:55.023Z,0.96
2023-01-28T17:46:24.447Z,0.96
2023-01-28T17:48:52.384Z,0.96
2023-01-28T17:51:20.692Z,0.95
2023-01-28T17:53:49.785Z,0.92
2023-01-28T17:56:19.932Z,0.95
2023-01-28T17:58:50.980Z,0.95
2023-01-28T18:01:20.278Z,0.91
2023-01-28T18:03:49.059Z,0.92
2023-01-28T18:06:17.051Z,0.90
2023-01-28T18:08:45.706Z,0.83
2023-01-28T18:11:15.986Z,0.82
2023-01-28T18:13:45.746Z,0.83
2023-01-28T18:16:16.139Z,0.83
2023-01-28T18:18:45.963Z,0.86
2023-01-28T18:21:22.961Z,0.89
2023-01-28T18:23:53.660Z,0.87
2023-01-28T18:26:22.179Z,0.89
2023-01-28T18:28:50.168Z,0.88
2023-01-28T18:31:17.998Z,0.84
2023-01-28T18:33:51.127Z,0.85
2023-01-28T18:36:18.859Z,0.87
2023-01-28T18:38:47.299Z,0.85
2023-01-28T18:41:15.515Z,0.85
2023-01-28T18:43:44.315Z,0.87
2023-01-28T18:46:14.993Z,0.84
2023-01-28T18:48:43.659Z,0.81
2023-01-28T18:51:27.608Z,0.79
2023-01-28T18:53:59.299Z,0.78
2023-01-28T18:56:27.197Z,0.77
2023-01-28T18:58:58.033Z,0.79
2023-01-28T19:01:25.868Z,0.79
2023-01-28T19:03:54.706Z,0.80
2023-01-28T19:06:24.541Z,0.80
2023-01-28T19:08:54.445Z,0.79
2023-01-28T19:11:22.418Z,0.77
2023-01-28T19:13:50.100Z,0.78
2023-01-28T19:16:18.067Z,0.75
2023-01-28T19:18:46.027Z,0.75
2023-01-28T19:21:14.705Z,0.75
2023-01-28T19:23:49.927Z,0.78
2023-01-28T19:26:21.405Z,0.79
2023-01-28T19:28:50.166Z,0.77
2023-01-28T19:31:18.891Z,0.76
2023-01-28T19:33:46.796Z,0.76
2023-01-28T19:36:15.068Z,0.78
2023-01-28T19:38:44.590Z,0.77
2023-01-28T19:41:13.504Z,0.77
2023-01-28T19:43:41.136Z,0.78
2023-01-28T19:46:10.393Z,0.76
2023-01-28T19:48:38.032Z,0.78
2023-01-28T19:51:08.271Z,0.80
2023-01-28T19:53:37.048Z,0.76
2023-01-28T19:56:09.550Z,0.75
2023-01-28T19:58:38.581Z,0.73
2023-01-28T20:01:07.378Z,0.73
2023-01-28T20:03:36.703Z,0.74
2023-01-28T20:06:06.145Z,0.74
2023-01-28T20:08:34.408Z,0.76
2023-01-28T20:11:08.058Z,0.76
2023-01-28T20:13:38.838Z,0.76
2023-01-28T20:16:09.039Z,0.75
2023-01-28T20:18:37.000Z,0.76
2023-01-28T20:21:06.309Z,0.78
2023-01-28T20:23:34.275Z,0.78
2023-01-28T20:26:02.967Z,0.79
2023-01-28T20:28:31.901Z,0.87
2023-01-28T20:31:05.326Z,0.85
2023-01-28T20:33:33.099Z,0.87
2023-01-28T20:36:01.903Z,0.84
2023-01-28T20:38:29.528Z,0.84
2023-01-28T20:40:57.572Z,0.82
2023-01-28T20:43:25.843Z,0.88
2023-01-28T20:46:03.284Z,0.90
2023-01-28T20:48:30.892Z,0.89
2023-01-28T20:50:58.555Z,0.88
2023-01-28T20:53:26.138Z,0.88
2023-01-28T20:55:59.770Z,0.89
2023-01-28T20:58:28.076Z,0.88
2023-01-28T21:00:57.419Z,0.87
2023-01-28T21:03:25.099Z,0.92
2023-01-28T21:05:53.191Z,0.90
2023-01-28T21:08:21.409Z,0.82
2023-01-28T21:10:49.091Z,0.87
2023-01-28T21:13:17.408Z,0.88
2023-01-28T21:15:53.997Z,0.89
2023-01-28T21:18:24.077Z,0.86
2023-01-28T21:20:53.573Z,0.89
2023-01-28T21:23:23.127Z,0.89
2023-01-28T21:25:51.975Z,0.90
2023-01-28T21:28:20.523Z,0.92
2023-01-28T21:30:48.748Z,0.93
2023-01-28T21:33:16.454Z,0.95
2023-01-28T21:35:45.627Z,0.95
2023-01-28T21:38:13.343Z,0.94
2023-01-28T21:40:40.923Z,0.95
2023-01-28T21:43:08.525Z,0.96
2023-01-28T21:45:36.096Z,0.97
2023-01-28T21:48:03.805Z,0.91
2023-01-28T21:50:51.434Z,0.96
2023-01-28T21:53:20.394Z,0.95
2023-01-28T21:55:49.283Z,0.94
2023-01-28T21:58:34.883Z,0.90
2023-01-28T22:01:09.399Z,0.89
2023-01-28T22:03:36.988Z,0.84
2023-01-28T22:06:04.825Z,0.85
2023-01-28T22:08:33.755Z,0.85
2023-01-28T22:11:03.420Z,0.84
2023-01-28T22:13:31.221Z,0.85
2023-01-28T22:15:58.917Z,0.89
2023-01-28T22:18:27.107Z,0.91
2023-01-28T22:20:58.897Z,0.90
2023-01-28T22:23:26.514Z,0.91
2023-01-28T22:25:55.786Z,0.94
2023-01-28T22:28:23.479Z,0.93
2023-01-28T22:30:51.279Z,0.89
2023-01-28T22:33:20.732Z,0.92
2023-01-28T22:35:48.940Z,0.94
2023-01-28T22:38:16.946Z,0.93
2023-01-28T22:40:44.877Z,0.87
2023-01-28T22:43:14.210Z,0.81
2023-01-28T22:45:42.041Z,0.76
2023-01-28T22:48:10.225Z,0.76
2023-01-28T22:50:38.119Z,0.75
2023-01-28T22:53:06.237Z,0.75
2023-01-28T22:55:33.854Z,0.76
2023-01-28T22:58:02.103Z,0.75
2023-01-28T23:00:31.253Z,0.80
2023-01-28T23:02:59.212Z,0.81
2023-01-28T23:05:27.283Z,0.81
2023-01-28T23:08:10.485Z,0.84
2023-01-28T23:10:39.080Z,0.83
2023-01-28T23:13:07.666Z,0.82
2023-01-28T23:15:54.179Z,0.85
2023-01-28T23:18:43.376Z,0.88
2023-01-28T23:21:30.740Z,0.89
2023-01-28T23:24:16.249Z,0.90
2023-01-28T23:26:45.417Z,0.91
2023-01-28T23:29:14.893Z,0.93
2023-01-28T23:31:46.591Z,0.95
2023-01-28T23:34:14.668Z,0.95
2023-01-28T23:36:42.338Z,0.93
2023-01-28T23:39:10.294Z,0.94
2023-01-28T23:41:38.455Z,0.89
2023-01-28T23:44:06.881Z,0.90
2023-01-28T23:46:39.885Z,0.85
2023-01-28T23:49:10.191Z,0.88
2023-01-28T23:51:37.789Z,0.88
2023-01-28T23:54:06.691Z,0.87
2023-01-28T23:56:35.232Z,0.91
2023-01-28T23:59:03.556Z,0.90
